Time;durP1;ratioP1;P1;durP2;ratioP2;P2;SDS_P1;SDS_P2;PMS_P1;PMS_P2;Temp;Humidity;BMP_temperature;BMP_pressure;BME280_temperature;BME280_humidity;BME280_pressure;Samples;Min_cycle;Max_cycle;Signal;HPM_P1;HPM_P2
2021/06/20 00:00:42;;;;;;;16.42;9.27;;;24.60;99.90;;;;;;5056410;28;20203;-78
2021/06/20 00:03:09;;;;;;;10.13;9.23;;;24.60;99.90;;;;;;5056330;28;20244;-79
2021/06/20 00:05:37;;;;;;;11.10;10.05;;;24.50;99.90;;;;;;5056355;28;20225;-78
2021/06/20 00:08:06;;;;;;;12.15;10.00;;;24.50;99.90;;;;;;5056310;28;20214;-78
2021/06/20 00:10:35;;;;;;;11.85;10.63;;;24.40;99.90;;;;;;5055943;28;20225;-78
2021/06/20 00:13:02;;;;;;;11.23;10.13;;;24.30;99.90;;;;;;5056164;28;20234;-78
2021/06/20 00:15:31;;;;;;;12.15;10.77;;;24.30;99.90;;;;;;5055903;28;20218;-78
2021/06/20 00:17:58;;;;;;;11.10;10.15;;;24.30;99.90;;;;;;5056162;28;20253;-78
2021/06/20 00:20:30;;;;;;;11.07;9.38;;;24.20;99.90;;;;;;5055785;28;20697;-78
2021/06/20 00:22:58;;;;;;;12.80;10.95;;;24.20;99.90;;;;;;5056472;28;20246;-78
2021/06/20 00:25:25;;;;;;;12.25;10.35;;;24.20;99.90;;;;;;5056020;28;20202;-78
2021/06/20 00:27:53;;;;;;;10.27;9.27;;;24.10;99.90;;;;;;5055928;28;20203;-78
2021/06/20 00:30:21;;;;;;;11.15;10.02;;;24.10;99.90;;;;;;5055579;28;20230;-78
2021/06/20 00:32:50;;;;;;;15.52;10.23;;;24.10;99.90;;;;;;5055804;28;20223;-78
2021/06/20 00:35:18;;;;;;;20.42;10.98;;;24.10;99.90;;;;;;5055537;28;20594;-78
2021/06/20 00:37:45;;;;;;;10.02;9.00;;;24.10;99.90;;;;;;5055793;28;20206;-78
2021/06/20 00:40:14;;;;;;;21.75;10.02;;;24.10;99.90;;;;;;5055475;28;20662;-79
2021/06/20 00:42:42;;;;;;;11.27;8.70;;;24.10;99.90;;;;;;5055589;28;20234;-78
2021/06/20 00:45:12;;;;;;;15.30;9.15;;;24.10;99.90;;;;;;5054941;28;20574;-78
2021/06/20 00:47:39;;;;;;;15.90;10.18;;;24.20;99.90;;;;;;5055321;28;20212;-79
2021/06/20 00:50:08;;;;;;;18.33;8.77;;;24.20;99.90;;;;;;5055139;28;20219;-79
2021/06/20 00:52:35;;;;;;;15.33;7.90;;;24.20;99.90;;;;;;5055176;28;20242;-79
2021/06/20 00:55:04;;;;;;;11.20;7.45;;;24.20;99.90;;;;;;5055209;28;20225;-79
2021/06/20 00:57:30;;;;;;;16.88;8.32;;;24.20;99.90;;;;;;5055128;28;20195;-79
2021/06/20 00:59:59;;;;;;;13.43;7.73;;;24.20;99.90;;;;;;5055401;28;20205;-79
2021/06/20 01:02:26;;;;;;;16.00;8.20;;;24.30;99.90;;;;;;5055218;28;20563;-78
2021/06/20 01:04:55;;;;;;;16.80;7.50;;;24.30;99.90;;;;;;5055146;28;20570;-79
2021/06/20 01:07:24;;;;;;;21.08;8.07;;;24.40;99.90;;;;;;5055291;28;20199;-79
2021/06/20 01:09:52;;;;;;;27.35;8.02;;;24.30;99.90;;;;;;5055150;28;20233;-79
2021/06/20 01:12:21;;;;;;;22.75;8.70;;;24.30;99.90;;;;;;5055230;28;20245;-79
2021/06/20 01:14:49;;;;;;;28.27;7.38;;;24.30;99.90;;;;;;5055068;28;20210;-78
2021/06/20 01:17:17;;;;;;;19.23;7.95;;;24.30;99.90;;;;;;5055059;28;20203;-78
2021/06/20 01:19:45;;;;;;;23.38;8.38;;;24.30;99.90;;;;;;5055026;28;20681;-78
2021/06/20 01:22:32;;;;;;;20.27;7.43;;;24.30;99.90;;;;;;5054534;28;20227;-78
2021/06/20 01:25:00;;;;;;;21.27;7.22;;;24.20;99.90;;;;;;5054954;28;20191;-78
2021/06/20 01:27:30;;;;;;;27.63;7.90;;;24.20;99.90;;;;;;5054859;28;20215;-78
2021/06/20 01:29:57;;;;;;;19.23;7.13;;;24.20;99.90;;;;;;5054802;28;20214;-78
2021/06/20 01:32:24;;;;;;;11.45;6.47;;;24.20;99.90;;;;;;5054692;28;20222;-78
2021/06/20 01:34:51;;;;;;;16.80;8.20;;;24.10;99.90;;;;;;5054379;28;20601;-78
2021/06/20 01:37:18;;;;;;;21.17;6.90;;;24.20;99.90;;;;;;5054624;28;20211;-78
2021/06/20 01:39:47;;;;;;;23.20;8.23;;;24.10;99.90;;;;;;5054615;28;20199;-78
2021/06/20 01:42:15;;;;;;;19.13;6.50;;;24.10;99.90;;;;;;5054501;28;20227;-79
2021/06/20 01:44:50;;;;;;;16.53;6.53;;;24.00;99.90;;;;;;5054529;28;20208;-78
2021/06/20 01:47:17;;;;;;;22.00;7.67;;;24.00;99.90;;;;;;5054473;28;20206;-78
2021/06/20 01:49:44;;;;;;;27.17;10.33;;;24.00;99.90;;;;;;5054358;28;20229;-78
2021/06/20 01:52:11;;;;;;;17.15;6.65;;;24.00;99.90;;;;;;5053800;28;20232;-79
2021/06/20 01:54:49;;;;;;;20.53;8.70;;;24.00;99.90;;;;;;5053961;28;20199;-78
2021/06/20 01:57:18;;;;;;;13.93;6.17;;;23.90;99.90;;;;;;5053923;28;20560;-79
2021/06/20 01:59:45;;;;;;;18.47;7.77;;;23.90;99.90;;;;;;5055047;28;20195;-78
2021/06/20 02:02:12;;;;;;;17.27;7.10;;;23.90;99.90;;;;;;5054132;28;20226;-78
2021/06/20 02:04:39;;;;;;;14.60;7.40;;;23.80;99.90;;;;;;5053813;28;20674;-78
2021/06/20 02:07:08;;;;;;;15.37;6.97;;;23.80;99.90;;;;;;5054123;28;20187;-78
2021/06/20 02:09:34;;;;;;;13.80;7.50;;;23.80;99.90;;;;;;5053681;28;20674;-78
2021/06/20 02:12:01;;;;;;;17.45;7.80;;;23.70;99.90;;;;;;5053916;28;20202;-78
2021/06/20 02:14:29;;;;;;;19.53;7.73;;;23.70;99.90;;;;;;5053960;28;20199;-78
2021/06/20 02:16:56;;;;;;;20.87;7.60;;;23.70;99.90;;;;;;5053912;28;20209;-78
2021/06/20 02:19:23;;;;;;;20.20;7.30;;;23.60;99.90;;;;;;5053548;28;20678;-78
2021/06/20 02:21:51;;;;;;;20.60;8.30;;;23.60;99.90;;;;;;5053493;28;20202;-78
2021/06/20 02:24:17;;;;;;;19.27;7.50;;;23.60;99.90;;;;;;5053812;28;20262;-78
2021/06/20 02:26:44;;;;;;;15.97;7.57;;;23.60;99.90;;;;;;5053481;28;20205;-78
2021/06/20 02:29:11;;;;;;;13.30;7.07;;;23.50;99.90;;;;;;5053768;28;20206;-78
2021/06/20 02:31:39;;;;;;;15.37;7.00;;;23.50;99.90;;;;;;5053283;28;20705;-78
2021/06/20 02:34:06;;;;;;;14.70;6.87;;;23.50;99.90;;;;;;5053572;28;20478;-78
2021/06/20 02:36:32;;;;;;;10.60;6.60;;;23.40;99.90;;;;;;5053640;28;20205;-78
2021/06/20 02:38:59;;;;;;;16.23;6.70;;;23.40;99.90;;;;;;5053313;28;20445;-78
2021/06/20 02:41:27;;;;;;;18.60;8.23;;;23.40;99.90;;;;;;5053510;28;20441;-78
2021/06/20 02:43:55;;;;;;;18.97;7.00;;;23.30;99.90;;;;;;5053139;28;20234;-78
2021/06/20 02:46:22;;;;;;;19.53;6.67;;;23.30;99.90;;;;;;5053496;28;20207;-78
2021/06/20 02:48:50;;;;;;;12.57;6.90;;;23.30;99.90;;;;;;5053228;28;20699;-78
2021/06/20 02:51:17;;;;;;;16.97;7.47;;;23.30;99.90;;;;;;5052985;28;20214;-78
2021/06/20 02:53:43;;;;;;;20.90;8.10;;;23.30;99.90;;;;;;5052898;28;20242;-78
2021/06/20 02:56:10;;;;;;;18.57;7.10;;;23.30;99.90;;;;;;5053024;28;20945;-78
2021/06/20 02:58:37;;;;;;;17.67;7.37;;;23.20;99.90;;;;;;5053046;28;20434;-78
2021/06/20 03:01:04;;;;;;;21.03;7.27;;;23.20;99.90;;;;;;5053324;28;20596;-78
2021/06/20 03:03:30;;;;;;;17.37;7.13;;;23.20;99.90;;;;;;5053153;28;20226;-78
2021/06/20 03:06:02;;;;;;;12.73;6.57;;;23.20;99.90;;;;;;5052798;28;20206;-78
2021/06/20 03:08:28;;;;;;;13.80;6.97;;;23.20;99.90;;;;;;5053774;28;20449;-78
2021/06/20 03:10:55;;;;;;;16.87;7.27;;;23.20;99.90;;;;;;5053074;28;20493;-78
2021/06/20 03:13:22;;;;;;;17.47;6.97;;;23.10;99.90;;;;;;5053091;28;20477;-78
2021/06/20 03:15:49;;;;;;;16.07;6.87;;;23.10;99.90;;;;;;5053148;28;20198;-78
2021/06/20 03:18:16;;;;;;;14.50;7.60;;;23.20;99.90;;;;;;5053135;28;20445;-78
2021/06/20 03:20:43;;;;;;;15.50;6.90;;;23.20;99.90;;;;;;5053120;28;20449;-78
2021/06/20 03:23:11;;;;;;;14.90;7.23;;;23.20;99.90;;;;;;5052931;28;20290;-78
2021/06/20 03:25:39;;;;;;;10.03;6.97;;;23.10;99.90;;;;;;5052737;28;20708;-78
2021/06/20 03:28:06;;;;;;;14.90;7.40;;;23.10;99.90;;;;;;5053022;28;20433;-78
2021/06/20 03:30:33;;;;;;;16.23;7.27;;;23.10;99.90;;;;;;5052899;28;20491;-78
2021/06/20 03:33:00;;;;;;;19.20;7.80;;;23.10;99.90;;;;;;5052917;28;20475;-78
2021/06/20 03:35:29;;;;;;;20.83;7.00;;;23.10;99.90;;;;;;5052642;28;20971;-78
2021/06/20 03:37:55;;;;;;;13.50;6.37;;;23.10;99.90;;;;;;5052899;28;20453;-78
2021/06/20 03:40:24;;;;;;;23.03;6.30;;;23.10;99.90;;;;;;5052959;28;20445;-79
2021/06/20 03:42:50;;;;;;;22.80;7.37;;;23.10;99.90;;;;;;5052788;28;20469;-78
2021/06/20 03:45:17;;;;;;;18.30;8.17;;;23.00;99.90;;;;;;5052864;28;20445;-78
2021/06/20 03:47:44;;;;;;;11.77;6.67;;;23.00;99.90;;;;;;5052544;28;20448;-78
2021/06/20 03:50:12;;;;;;;14.57;6.13;;;23.00;99.90;;;;;;5052764;28;20476;-78
2021/06/20 03:52:39;;;;;;;9.90;6.30;;;23.00;99.90;;;;;;5052452;28;20491;-78
2021/06/20 03:55:09;;;;;;;12.77;5.70;;;23.00;99.90;;;;;;5052778;28;20437;-78
2021/06/20 03:57:37;;;;;;;14.47;6.10;;;23.00;99.90;;;;;;5052430;28;20445;-78
2021/06/20 04:00:07;;;;;;;11.23;5.90;;;23.00;99.90;;;;;;5052700;28;20207;-78
2021/06/20 04:02:34;;;;;;;21.73;6.47;;;23.00;99.90;;;;;;5052667;28;20226;-78
2021/06/20 04:05:00;;;;;;;14.93;6.30;;;22.90;99.90;;;;;;5052389;28;20453;-78
2021/06/20 04:07:27;;;;;;;12.47;6.30;;;22.90;99.90;;;;;;5052665;28;20472;-78
2021/06/20 04:09:54;;;;;;;11.10;5.67;;;22.90;99.90;;;;;;5052323;28;20453;-78
2021/06/20 04:12:21;;;;;;;12.13;6.20;;;22.90;99.90;;;;;;5052476;28;20492;-78
2021/06/20 04:14:49;;;;;;;10.27;6.33;;;22.90;99.90;;;;;;5052885;28;20441;-78
2021/06/20 04:17:15;;;;;;;13.20;6.77;;;22.90;99.90;;;;;;5052582;28;20489;-78
2021/06/20 04:19:42;;;;;;;12.50;4.97;;;22.90;99.90;;;;;;5054738;28;20453;-78
2021/06/20 04:22:09;;;;;;;13.93;5.00;;;22.90;99.90;;;;;;5055743;28;21039;-78
2021/06/20 04:24:36;;;;;;;9.23;5.33;;;22.80;99.90;;;;;;5055827;28;20566;-79
2021/06/20 04:27:03;;;;;;;6.73;4.20;;;22.80;99.90;;;;;;5055713;28;20452;-78
2021/06/20 04:29:30;;;;;;;9.63;5.10;;;22.80;99.90;;;;;;5055972;28;20437;-78
2021/06/20 04:31:58;;;;;;;9.00;3.70;;;22.80;99.90;;;;;;5055532;28;20469;-78
2021/06/20 04:34:25;;;;;;;5.60;3.70;;;22.80;99.90;;;;;;5055838;28;20437;-78
2021/06/20 04:36:52;;;;;;;6.77;3.03;;;22.80;99.90;;;;;;5055812;28;20445;-78
2021/06/20 04:39:19;;;;;;;10.73;4.17;;;22.80;99.90;;;;;;5055467;28;20813;-78
2021/06/20 04:41:45;;;;;;;5.13;3.67;;;22.80;99.90;;;;;;5055742;28;20206;-78
2021/06/20 04:46:53;;;;;;;8.40;3.67;;;22.80;99.90;;;;;;5054438;28;20613;-78
2021/06/20 04:49:21;;;;;;;7.57;3.63;;;22.80;99.90;;;;;;5055606;28;20442;-78
2021/06/20 04:51:48;;;;;;;7.93;3.40;;;22.80;99.90;;;;;;5055300;28;20476;-78
2021/06/20 04:54:15;;;;;;;6.23;4.00;;;22.80;99.90;;;;;;5055089;28;20472;-78
2021/06/20 04:56:43;;;;;;;5.80;3.93;;;22.80;99.90;;;;;;5055205;28;20440;-79
2021/06/20 04:59:10;;;;;;;11.47;3.83;;;22.80;99.90;;;;;;5055451;28;20294;-78
2021/06/20 05:01:38;;;;;;;10.63;4.00;;;22.90;99.90;;;;;;5055897;28;20441;-78
2021/06/20 05:04:05;;;;;;;7.37;3.10;;;22.90;99.90;;;;;;5055035;28;20714;-78
2021/06/20 05:06:33;;;;;;;5.00;2.97;;;22.90;99.90;;;;;;5055283;28;20544;-78
2021/06/20 05:09:00;;;;;;;9.60;3.53;;;22.90;99.90;;;;;;5055266;28;20430;-78
2021/06/20 05:11:27;;;;;;;6.00;3.80;;;22.90;99.90;;;;;;5054799;28;21000;-78
2021/06/20 05:13:54;;;;;;;9.80;3.70;;;23.00;99.90;;;;;;5054771;28;20219;-78
2021/06/20 05:16:21;;;;;;;8.27;3.77;;;22.90;99.90;;;;;;5055096;28;20456;-78
2021/06/20 05:18:47;;;;;;;7.50;3.93;;;22.90;99.90;;;;;;5054741;28;20203;-78
2021/06/20 05:21:14;;;;;;;4.17;3.80;;;22.90;99.90;;;;;;5054832;28;20208;-78
2021/06/20 05:23:42;;;;;;;7.33;3.40;;;22.80;99.90;;;;;;5054908;28;20226;-78
2021/06/20 05:26:09;;;;;;;4.80;3.30;;;22.70;99.90;;;;;;5055197;28;20453;-78
2021/06/20 05:28:35;;;;;;;9.40;3.70;;;22.60;99.90;;;;;;5054869;28;20441;-78
2021/06/20 05:31:02;;;;;;;8.87;3.40;;;22.50;99.90;;;;;;5054132;28;20481;-79
2021/06/20 05:33:29;;;;;;;11.43;4.13;;;22.30;99.90;;;;;;5054431;28;20460;-79
2021/06/20 05:35:56;;;;;;;6.70;2.93;;;22.20;99.90;;;;;;5054718;28;20445;-79
2021/06/20 05:38:22;;;;;;;5.23;3.00;;;22.10;99.90;;;;;;5054446;28;20441;-79
2021/06/20 05:40:51;;;;;;;5.03;3.57;;;22.00;99.90;;;;;;5054624;28;20452;-79
2021/06/20 05:43:18;;;;;;;10.77;4.47;;;22.00;99.90;;;;;;5054491;28;20476;-79
2021/06/20 05:45:45;;;;;;;6.70;3.90;;;22.10;99.90;;;;;;5054563;28;20538;-79
2021/06/20 05:48:12;;;;;;;5.80;3.37;;;22.10;99.90;;;;;;5054479;28;20437;-79
2021/06/20 05:50:39;;;;;;;9.10;3.63;;;22.20;99.90;;;;;;5054336;28;20449;-79
2021/06/20 05:53:06;;;;;;;8.03;3.70;;;22.20;99.90;;;;;;5053971;28;20485;-79
2021/06/20 05:55:32;;;;;;;5.93;4.17;;;22.20;99.90;;;;;;5054324;28;20448;-79
2021/06/20 05:58:01;;;;;;;10.97;3.30;;;22.30;99.90;;;;;;5054281;28;20441;-79
2021/06/20 06:00:28;;;;;;;3.53;3.10;;;22.30;99.90;;;;;;5054205;28;20449;-79
2021/06/20 06:02:57;;;;;;;6.63;3.40;;;22.40;99.90;;;;;;5053988;28;20504;-79
2021/06/20 06:05:24;;;;;;;8.50;3.77;;;22.60;99.90;;;;;;5053841;28;20937;-79
2021/06/20 06:07:51;;;;;;;7.07;3.63;;;22.70;99.90;;;;;;5053699;28;20803;-79
2021/06/20 06:10:18;;;;;;;6.00;3.40;;;22.90;99.90;;;;;;5054171;28;20468;-79
2021/06/20 06:12:45;;;;;;;9.57;3.70;;;23.20;99.90;;;;;;5053915;28;20230;-79
2021/06/20 06:15:14;;;;;;;7.53;2.53;;;23.30;99.90;;;;;;5053994;28;20446;-78
2021/06/20 06:17:41;;;;;;;5.00;2.53;;;23.50;99.90;;;;;;5053671;28;20206;-78
2021/06/20 06:20:09;;;;;;;3.40;2.83;;;23.60;99.90;;;;;;5053588;28;20285;-78
2021/06/20 06:22:35;;;;;;;9.32;3.00;;;23.70;99.90;;;;;;5053835;28;20223;-78
2021/06/20 06:25:03;;;;;;;9.63;3.03;;;23.60;99.90;;;;;;5053813;28;20207;-78
2021/06/20 06:27:30;;;;;;;4.25;2.58;;;23.70;99.90;;;;;;5053791;28;20190;-79
2021/06/20 06:29:56;;;;;;;5.88;3.10;;;23.60;99.90;;;;;;5053776;28;20198;-78
2021/06/20 06:32:24;;;;;;;4.82;2.33;;;23.50;99.90;;;;;;5053553;28;20237;-78
2021/06/20 06:34:51;;;;;;;2.90;2.40;;;23.60;99.90;;;;;;5053687;28;20190;-78
2021/06/20 06:37:18;;;;;;;5.80;2.55;;;23.60;99.90;;;;;;5053655;28;20187;-78
2021/06/20 06:39:45;;;;;;;5.90;2.38;;;23.60;99.90;;;;;;5053621;28;20194;-78
2021/06/20 06:42:11;;;;;;;4.55;2.75;;;23.80;99.90;;;;;;5052728;28;20214;-78
2021/06/20 06:44:38;;;;;;;7.05;2.60;;;23.80;99.90;;;;;;5053552;28;20190;-78
2021/06/20 06:47:06;;;;;;;4.65;2.47;;;23.80;99.90;;;;;;5053543;28;20198;-78
2021/06/20 06:49:34;;;;;;;5.50;2.45;;;23.80;99.90;;;;;;5053482;28;20187;-78
2021/06/20 06:52:00;;;;;;;5.10;2.50;;;23.80;99.90;;;;;;5053107;28;20222;-79
2021/06/20 06:54:27;;;;;;;3.95;3.05;;;23.80;99.90;;;;;;5053460;28;20194;-78
2021/06/20 06:56:54;;;;;;;7.13;2.58;;;23.90;99.90;;;;;;5053391;28;20183;-78
2021/06/20 06:59:21;;;;;;;6.25;3.08;;;23.90;99.90;;;;;;5053415;28;20190;-78
2021/06/20 07:01:47;;;;;;;6.13;3.50;;;23.90;99.90;;;;;;5053344;28;20191;-78
2021/06/20 07:04:14;;;;;;;9.90;5.10;;;23.90;99.90;;;;;;5053210;28;20215;-78
2021/06/20 07:06:42;;;;;;;3.38;2.45;;;23.80;99.90;;;;;;5053264;28;20191;-78
2021/06/20 07:09:09;;;;;;;6.40;3.15;;;23.80;99.90;;;;;;5053258;28;20191;-78
2021/06/20 07:11:37;;;;;;;3.38;2.42;;;23.80;99.90;;;;;;5052846;28;20214;-78
2021/06/20 07:14:03;;;;;;;5.40;2.70;;;23.80;99.90;;;;;;5053140;28;20227;-78
2021/06/20 07:16:30;;;;;;;4.57;2.35;;;24.10;99.90;;;;;;5052941;28;20186;-77
2021/06/20 07:18:57;;;;;;;3.40;2.17;;;24.40;99.90;;;;;;5053816;28;20559;-78
2021/06/20 07:21:24;;;;;;;5.97;2.30;;;24.60;99.90;;;;;;5052846;28;20179;-78
2021/06/20 07:23:52;;;;;;;4.32;2.30;;;24.80;99.90;;;;;;5053038;28;20229;-78
2021/06/20 07:26:19;;;;;;;4.75;1.90;;;24.90;99.90;;;;;;5053077;28;20187;-78
2021/06/20 07:28:48;;;;;;;4.07;3.15;;;24.80;99.90;;;;;;5053383;28;20179;-78
2021/06/20 07:31:14;;;;;;;9.23;3.38;;;24.80;99.90;;;;;;5052716;28;20194;-78
2021/06/20 07:33:41;;;;;;;8.38;2.70;;;24.80;99.90;;;;;;5053264;28;20230;-78
2021/06/20 07:36:10;;;;;;;3.60;2.15;;;24.70;99.90;;;;;;5052996;28;20187;-78
2021/06/20 07:38:37;;;;;;;5.53;3.03;;;24.60;99.90;;;;;;5052702;28;20663;-78
2021/06/20 07:41:05;;;;;;;4.10;2.15;;;24.50;99.90;;;;;;5052995;28;20274;-78
2021/06/20 07:43:32;;;;;;;5.75;2.67;;;24.40;99.90;;;;;;5052550;28;20215;-78
2021/06/20 07:45:59;;;;;;;4.50;1.90;;;24.40;99.90;;;;;;5052908;28;20195;-79
2021/06/20 07:48:26;;;;;;;4.07;2.42;;;24.50;99.90;;;;;;5052903;28;20193;-79
2021/06/20 07:50:53;;;;;;;7.72;2.85;;;24.70;99.90;;;;;;5052879;28;20214;-79
2021/06/20 07:53:20;;;;;;;4.25;2.95;;;24.60;99.90;;;;;;5054055;28;20237;-79
2021/06/20 07:55:47;;;;;;;4.07;1.92;;;24.70;99.90;;;;;;5056639;28;20213;-79
2021/06/20 07:58:15;;;;;;;5.97;2.70;;;24.80;99.90;;;;;;5056550;28;20205;-76
2021/06/20 08:00:42;;;;;;;6.53;2.88;;;24.90;99.90;;;;;;5056536;28;20203;-76
2021/06/20 08:03:09;;;;;;;4.63;3.00;;;24.90;99.90;;;;;;5056452;28;20241;-76
2021/06/20 08:05:35;;;;;;;5.03;2.35;;;25.00;99.90;;;;;;5056229;28;20535;-76
2021/06/20 08:08:02;;;;;;;3.88;2.70;;;25.00;99.90;;;;;;5056157;28;20638;-76
2021/06/20 08:10:29;;;;;;;3.95;2.55;;;25.00;99.90;;;;;;5056419;28;20187;-75
2021/06/20 08:12:56;;;;;;;2.95;2.63;;;24.90;99.90;;;;;;5055892;28;20702;-76
2021/06/20 08:15:24;;;;;;;6.53;2.58;;;24.80;99.90;;;;;;5056077;28;20183;-75
2021/06/20 08:17:51;;;;;;;5.28;2.80;;;24.80;99.90;;;;;;5056280;28;20187;-76
2021/06/20 08:20:18;;;;;;;6.57;2.50;;;24.60;99.90;;;;;;5056184;28;20198;-75
2021/06/20 08:22:45;;;;;;;4.28;2.40;;;24.50;99.90;;;;;;5055787;28;20599;-75
2021/06/20 08:25:13;;;;;;;7.10;2.75;;;24.30;99.90;;;;;;5056112;28;20190;-75
2021/06/20 08:27:41;;;;;;;2.97;2.28;;;24.20;99.90;;;;;;5055789;28;20187;-76
2021/06/20 08:30:10;;;;;;;6.45;2.72;;;24.20;99.90;;;;;;5055755;28;20643;-78
2021/06/20 08:32:39;;;;;;;2.70;2.35;;;24.20;99.90;;;;;;5055546;28;20789;-78
2021/06/20 08:35:07;;;;;;;5.53;2.10;;;24.20;99.90;;;;;;5055965;28;20187;-78
2021/06/20 08:37:34;;;;;;;2.50;2.30;;;24.40;99.90;;;;;;5055904;28;20191;-78
2021/06/20 08:40:01;;;;;;;2.88;2.20;;;24.60;99.90;;;;;;5055488;28;20187;-77
2021/06/20 08:42:28;;;;;;;4.50;2.03;;;24.70;99.90;;;;;;5055363;28;20219;-78
2021/06/20 08:44:55;;;;;;;7.78;2.17;;;24.90;99.90;;;;;;5055512;28;20529;-78
2021/06/20 08:47:21;;;;;;;3.90;2.75;;;24.90;99.90;;;;;;5055760;28;20190;-78
2021/06/20 08:49:50;;;;;;;3.42;2.33;;;25.00;99.90;;;;;;5055683;28;20191;-78
2021/06/20 08:52:17;;;;;;;4.53;2.00;;;25.10;99.90;;;;;;5055293;28;20235;-78
2021/06/20 08:57:26;;;;;;;2.95;1.88;;;25.20;99.90;;;;;;5054783;28;20222;-78
2021/06/20 08:59:53;;;;;;;2.30;1.73;;;25.20;99.90;;;;;;5055159;28;20198;-78
2021/06/20 09:02:24;;;;;;;1.98;1.65;;;25.10;99.90;;;;;;5055133;28;20229;-78
2021/06/20 09:04:57;;;;;;;1.92;1.70;;;25.00;99.90;;;;;;5054712;28;20191;-79
2021/06/20 09:07:35;;;;;;;3.17;2.20;;;25.00;99.90;;;;;;5056154;28;20596;-79
2021/06/20 09:10:10;;;;;;;5.85;2.28;;;25.10;99.90;;;;;;5055284;28;20187;-78
2021/06/20 09:12:45;;;;;;;2.10;1.90;;;25.10;99.90;;;;;;5055060;28;20226;-78
2021/06/20 09:15:13;;;;;;;4.82;2.55;;;25.10;99.90;;;;;;5054962;28;20175;-78
2021/06/20 09:17:40;;;;;;;6.72;2.08;;;25.20;99.90;;;;;;5055096;28;20191;-78
2021/06/20 09:20:09;;;;;;;2.83;2.00;;;25.20;99.90;;;;;;5055083;28;20191;-78
2021/06/20 09:22:36;;;;;;;3.80;1.80;;;25.10;99.90;;;;;;5054844;28;20223;-79
2021/06/20 09:25:06;;;;;;;6.03;2.40;;;25.10;99.90;;;;;;5054707;28;20631;-79
2021/06/20 09:27:33;;;;;;;4.57;2.17;;;25.10;99.90;;;;;;5054936;28;20191;-79
2021/06/20 09:30:12;;;;;;;3.67;2.30;;;25.20;99.90;;;;;;5054883;28;20194;-79
2021/06/20 09:32:40;;;;;;;5.10;1.90;;;25.40;99.90;;;;;;5054415;28;20747;-78
2021/06/20 09:35:09;;;;;;;2.42;2.20;;;25.60;99.90;;;;;;5054772;28;20248;-80
2021/06/20 09:37:36;;;;;;;2.72;1.73;;;25.70;99.90;;;;;;5054452;28;20651;-79
2021/06/20 09:40:15;;;;;;;7.18;2.50;;;25.70;99.90;;;;;;5054725;28;20195;-78
2021/06/20 09:42:43;;;;;;;4.50;2.13;;;25.70;99.90;;;;;;5054585;28;20254;-78
2021/06/20 09:45:11;;;;;;;5.03;2.30;;;25.80;99.90;;;;;;5054621;28;20223;-79
2021/06/20 09:47:42;;;;;;;7.72;2.55;;;25.90;99.90;;;;;;5054566;28;20270;-79
2021/06/20 09:50:11;;;;;;;3.97;1.85;;;26.00;99.90;;;;;;5054482;28;20194;-79
2021/06/20 09:52:38;;;;;;;2.95;1.70;;;26.00;99.90;;;;;;5054006;28;20222;-78
2021/06/20 09:55:10;;;;;;;3.80;2.35;;;26.10;99.90;;;;;;5054180;28;20568;-78
2021/06/20 09:57:41;;;;;;;2.88;2.08;;;26.20;99.90;;;;;;5054420;28;20270;-78
2021/06/20 10:00:09;;;;;;;5.32;2.70;;;26.20;99.90;;;;;;5054357;28;20191;-79
2021/06/20 10:02:38;;;;;;;4.93;2.08;;;26.20;99.90;;;;;;5054230;28;20223;-79
2021/06/20 10:05:07;;;;;;;4.70;2.15;;;26.20;99.90;;;;;;5053959;28;20289;-78
2021/06/20 10:07:35;;;;;;;2.45;2.25;;;26.20;99.90;;;;;;5054242;28;20237;-78
2021/06/20 10:10:04;;;;;;;6.50;2.72;;;26.20;99.90;;;;;;5054178;28;20193;-79
2021/06/20 10:12:30;;;;;;;4.10;1.77;;;26.20;99.90;;;;;;5053634;28;20580;-79
2021/06/20 10:14:59;;;;;;;3.10;1.83;;;26.30;99.90;;;;;;5053831;28;20282;-78
2021/06/20 10:17:29;;;;;;;4.30;1.70;;;26.40;99.90;;;;;;5053161;28;20179;-77
2021/06/20 10:19:58;;;;;;;6.70;1.83;;;26.40;99.90;;;;;;5054018;28;20198;-78
2021/06/20 10:22:33;;;;;;;3.08;2.60;;;26.30;99.90;;;;;;5053576;28;20709;-80
2021/06/20 10:25:02;;;;;;;2.65;1.52;;;26.30;99.90;;;;;;5053915;28;20206;-78
2021/06/20 10:27:30;;;;;;;3.80;1.58;;;26.20;99.90;;;;;;5053875;28;20191;-78
2021/06/20 10:29:59;;;;;;;2.85;1.35;;;26.20;99.90;;;;;;5053816;28;20187;-77
2021/06/20 10:32:27;;;;;;;1.95;1.42;;;26.20;99.40;;;;;;5053423;28;20290;-78
2021/06/20 10:34:57;;;;;;;4.10;1.67;;;26.20;98.00;;;;;;5053702;28;20215;-80
2021/06/20 10:37:25;;;;;;;1.45;1.27;;;26.20;97.70;;;;;;5053699;28;20191;-78
2021/06/20 10:39:54;;;;;;;1.75;1.30;;;26.50;97.20;;;;;;5053669;28;20646;-78
2021/06/20 10:42:35;;;;;;;2.45;1.67;;;26.60;97.10;;;;;;5053208;28;20781;-78
2021/06/20 10:45:02;;;;;;;1.60;1.35;;;26.70;97.10;;;;;;5053587;28;20195;-79
2021/06/20 10:47:30;;;;;;;2.42;1.20;;;26.80;97.40;;;;;;5053252;28;20647;-78
2021/06/20 10:49:58;;;;;;;3.65;1.20;;;27.00;97.70;;;;;;5053324;28;20642;-78
2021/06/20 10:52:25;;;;;;;2.47;1.20;;;27.10;96.70;;;;;;5053076;28;20234;-78
2021/06/20 10:55:04;;;;;;;4.47;2.33;;;27.20;94.40;;;;;;5053284;28;20569;-77
2021/06/20 10:57:32;;;;;;;2.75;1.20;;;27.30;94.10;;;;;;5053433;28;20193;-78
2021/06/20 11:00:00;;;;;;;3.75;1.30;;;27.40;93.90;;;;;;5053398;28;20191;-79
2021/06/20 11:02:33;;;;;;;2.67;1.48;;;27.40;93.80;;;;;;5053353;28;20222;-80
2021/06/20 11:05:00;;;;;;;2.35;1.42;;;27.60;93.50;;;;;;5053332;28;20194;-78
2021/06/20 11:07:28;;;;;;;1.60;1.33;;;27.60;92.40;;;;;;5053833;28;20213;-78
2021/06/20 11:09:56;;;;;;;1.90;1.60;;;27.50;93.40;;;;;;5052897;28;20604;-78
2021/06/20 11:12:23;;;;;;;6.15;1.70;;;27.70;94.80;;;;;;5052897;28;20236;-79
2021/06/20 11:14:51;;;;;;;3.58;2.40;;;27.80;94.50;;;;;;5052923;28;20662;-78
2021/06/20 11:17:18;;;;;;;3.55;1.58;;;27.90;94.00;;;;;;5052920;28;20670;-78
2021/06/20 11:19:45;;;;;;;5.00;1.60;;;28.10;93.70;;;;;;5053063;28;20244;-78
2021/06/20 11:22:14;;;;;;;6.22;1.92;;;28.10;91.70;;;;;;5053104;28;20225;-78
2021/06/20 11:24:43;;;;;;;5.47;1.73;;;28.10;91.90;;;;;;5053109;28;20190;-78
2021/06/20 11:27:11;;;;;;;6.43;1.95;;;27.90;91.70;;;;;;5052855;28;20187;-78
2021/06/20 11:29:41;;;;;;;2.88;1.80;;;27.80;91.80;;;;;;5057138;28;20190;-79
2021/06/20 11:32:15;;;;;;;4.82;2.72;;;27.80;91.80;;;;;;5057094;28;20200;-79
2021/06/20 11:34:44;;;;;;;4.03;1.83;;;27.80;91.30;;;;;;5057567;28;20209;-79
2021/06/20 11:37:17;;;;;;;3.28;2.25;;;27.70;92.70;;;;;;5056987;28;20209;-79
2021/06/20 11:39:47;;;;;;;3.42;2.35;;;27.80;91.40;;;;;;5057023;28;20191;-80
2021/06/20 11:42:22;;;;;;;5.05;1.58;;;27.80;91.20;;;;;;5056878;28;20223;-81
2021/06/20 11:44:55;;;;;;;8.50;3.47;;;27.80;91.20;;;;;;5056938;28;20191;-80
2021/06/20 11:47:29;;;;;;;4.53;2.08;;;27.90;90.70;;;;;;5056610;28;20604;-79
2021/06/20 11:49:56;;;;;;;8.10;1.98;;;27.70;90.60;;;;;;5056514;28;20532;-79
2021/06/20 11:52:24;;;;;;;10.60;2.80;;;27.70;90.90;;;;;;5056466;28;20245;-81
2021/06/20 11:55:04;;;;;;;7.35;2.25;;;27.50;90.60;;;;;;5056690;28;20207;-79
2021/06/20 11:57:32;;;;;;;12.57;2.30;;;27.40;91.10;;;;;;5056207;28;20249;-79
2021/06/20 12:00:08;;;;;;;7.95;2.35;;;27.40;91.20;;;;;;5056630;28;20202;-79
2021/06/20 12:02:36;;;;;;;7.53;2.17;;;27.60;89.70;;;;;;5056497;28;20229;-80
2021/06/20 12:05:03;;;;;;;9.75;2.63;;;27.60;89.10;;;;;;5056563;28;20536;-81
2021/06/20 12:07:30;;;;;;;8.07;2.42;;;27.50;90.10;;;;;;5056507;28;20249;-78
2021/06/20 12:09:57;;;;;;;7.57;1.90;;;27.40;89.80;;;;;;5056501;28;20638;-79
2021/06/20 12:12:24;;;;;;;11.88;3.63;;;27.40;90.70;;;;;;5056365;28;20229;-79
2021/06/20 12:14:58;;;;;;;10.88;2.67;;;27.40;90.30;;;;;;5056327;28;20206;-79
2021/06/20 12:17:24;;;;;;;7.82;2.35;;;27.50;90.70;;;;;;5056339;28;20187;-79
2021/06/20 12:19:52;;;;;;;7.13;3.58;;;27.60;90.70;;;;;;5056335;28;20631;-78
2021/06/20 12:22:20;;;;;;;9.02;4.13;;;27.60;89.70;;;;;;5055915;28;20223;-80
2021/06/20 12:24:49;;;;;;;7.45;3.33;;;27.80;88.40;;;;;;5056036;28;20210;-80
2021/06/20 12:27:29;;;;;;;10.40;2.85;;;27.90;87.40;;;;;;5056249;28;20199;-80
2021/06/20 12:29:56;;;;;;;8.38;2.72;;;27.90;87.00;;;;;;5056108;28;20183;-80
2021/06/20 12:32:23;;;;;;;6.07;2.90;;;27.80;90.00;;;;;;5055931;28;20233;-80
2021/06/20 12:34:52;;;;;;;8.70;2.85;;;27.80;88.00;;;;;;5055670;28;20202;-80
2021/06/20 12:37:21;;;;;;;8.18;2.22;;;27.80;86.00;;;;;;5056228;28;20195;-80
2021/06/20 12:39:51;;;;;;;9.77;3.33;;;27.60;86.80;;;;;;5054821;28;20217;-81
2021/06/20 12:42:19;;;;;;;13.73;3.80;;;27.40;87.00;;;;;;5055796;28;20222;-80
2021/06/20 12:44:49;;;;;;;15.50;3.22;;;27.50;85.00;;;;;;5055533;28;20533;-81
2021/06/20 12:47:16;;;;;;;11.45;3.00;;;27.50;85.00;;;;;;5055540;28;20714;-79
2021/06/20 12:49:47;;;;;;;13.48;3.28;;;27.40;85.80;;;;;;5055480;28;20550;-78
2021/06/20 12:52:15;;;;;;;12.40;3.17;;;27.40;87.50;;;;;;5055020;28;20226;-78